Search for airport 
image banner adimage banner adimage banner ad
image banner ad

A28 - Fort Bidwell

Located in Fort Bidwell, United States

ICAO - A28, IATA -

Data provided by Airmate  

General information

Coordinates: N41°52'35" W120°8'48"
Elevation is 4616 feet MSL.
Magnetic variation is 17° East
View others Airports in California

Operational data

Special qualification required
Current time UTC:
Current local time:
Weather at : KLKV - Lake County ( 38 km )
METAR: KLKV 240853Z AUTO 12009KT 10SM SCT110 14/06 A3014 RMK AO2 SLP161 T01390056 51013
View NOTAMs / SUP AIP / TFR affecting this airport [VIEW]
Communications frequencies: [VIEW]

Runways:

RWY identifierQFULength (ft)Width (ft)SurfaceLDA (ft)
16181°366050OTHER
34366050OTHER

Airport contact information

Address: Fort Bidwell United States

Satellite view of A28